createdAt,value
2019-01-31T00:01:31.372Z,51.63
2019-01-31T00:04:21.365Z,43.90
2019-01-31T00:07:09.247Z,42.33
2019-01-31T00:10:20.211Z,45.80
2019-01-31T00:13:28.236Z,46.00
2019-01-31T00:16:18.165Z,43.33
2019-01-31T00:19:35.854Z,44.10
2019-01-31T00:22:52.340Z,45.17
2019-01-31T00:26:01.369Z,42.97
2019-01-31T00:28:50.138Z,51.10
2019-01-31T00:31:50.655Z,43.50
2019-01-31T00:35:08.908Z,43.50
2019-01-31T00:38:07.131Z,45.87
2019-01-31T00:41:45.103Z,45.30
2019-01-31T00:44:41.079Z,42.33
2019-01-31T00:47:47.355Z,45.67
2019-01-31T00:50:52.975Z,46.47
2019-01-31T00:54:01.324Z,47.47
2019-01-31T00:57:32.557Z,45.13
2019-01-31T01:00:43.963Z,41.53
2019-01-31T01:04:01.251Z,48.23
2019-01-31T01:07:13.837Z,52.30
2019-01-31T01:10:03.358Z,45.17
2019-01-31T01:13:03.498Z,41.53
2019-01-31T01:16:03.499Z,46.07
2019-01-31T01:19:22.475Z,44.40
2019-01-31T01:22:19.673Z,45.43
2019-01-31T01:25:33.958Z,42.07
2019-01-31T01:29:36.486Z,46.40
2019-01-31T01:33:04.842Z,44.57
2019-01-31T01:36:03.848Z,43.07
2019-01-31T01:39:41.665Z,42.67
2019-01-31T01:42:36.267Z,40.17
2019-01-31T01:46:00.963Z,43.27
2019-01-31T01:49:07.477Z,50.17
2019-01-31T01:51:49.486Z,49.30
2019-01-31T01:55:11.809Z,46.63
2019-01-31T01:58:15.342Z,45.17
2019-01-31T02:01:51.926Z,48.00
2019-01-31T02:05:00.996Z,49.80
2019-01-31T02:08:32.414Z,45.73
2019-01-31T02:11:34.455Z,50.63
2019-01-31T02:15:00.439Z,45.20
2019-01-31T02:17:49.355Z,50.03
2019-01-31T02:21:01.704Z,48.20
2019-01-31T02:24:03.529Z,45.83
2019-01-31T02:27:18.666Z,44.07
2019-01-31T02:30:25.656Z,45.00
2019-01-31T02:33:23.767Z,52.90
2019-01-31T02:36:17.619Z,44.00
2019-01-31T02:39:52.056Z,50.97
2019-01-31T02:42:45.711Z,48.63
2019-01-31T02:45:55.152Z,44.20
2019-01-31T02:48:47.731Z,47.97
2019-01-31T02:52:05.716Z,45.23
2019-01-31T02:55:23.706Z,44.87
2019-01-31T02:58:08.882Z,48.83
2019-01-31T03:01:25.457Z,49.43
2019-01-31T03:04:14.561Z,49.40
2019-01-31T03:07:31.143Z,49.03
2019-01-31T03:10:41.069Z,55.07
2019-01-31T03:13:51.641Z,48.20
2019-01-31T03:17:10.032Z,52.53
2019-01-31T03:20:27.295Z,47.37
2019-01-31T03:23:54.814Z,48.70
2019-01-31T03:27:23.971Z,51.20
2019-01-31T03:30:52.509Z,49.53
2019-01-31T03:33:57.414Z,48.80
2019-01-31T03:37:14.174Z,47.93
2019-01-31T03:40:28.805Z,49.47
2019-01-31T03:43:36.190Z,49.80
2019-01-31T03:46:40.278Z,49.57
2019-01-31T03:50:08.744Z,47.67
2019-01-31T03:53:17.722Z,42.83
2019-01-31T03:56:41.302Z,47.10
2019-01-31T03:59:25.056Z,46.80
2019-01-31T04:02:22.745Z,50.70
2019-01-31T04:05:25.322Z,48.37
2019-01-31T04:07:58.642Z,47.53
2019-01-31T04:10:30.723Z,48.90
2019-01-31T04:13:03.133Z,48.10
2019-01-31T04:15:33.827Z,50.97
2019-01-31T04:18:06.086Z,53.17
2019-01-31T04:20:39.568Z,49.57
2019-01-31T04:23:12.554Z,55.50
2019-01-31T04:25:45.724Z,47.00
2019-01-31T04:28:18.487Z,51.73
2019-01-31T04:30:57.850Z,50.17
2019-01-31T04:33:44.754Z,51.07
2019-01-31T04:36:19.329Z,45.47
2019-01-31T04:38:49.847Z,53.10
2019-01-31T04:41:21.002Z,51.13
2019-01-31T04:43:54.809Z,53.33
2019-01-31T04:46:30.205Z,46.40
2019-01-31T04:49:02.226Z,49.13
2019-01-31T04:51:35.674Z,48.77
2019-01-31T04:54:10.426Z,45.23
2019-01-31T04:56:43.718Z,51.60
2019-01-31T04:59:16.349Z,49.73
2019-01-31T05:01:48.868Z,51.67
2019-01-31T05:04:20.893Z,49.50
2019-01-31T05:06:53.494Z,46.03
2019-01-31T05:09:24.152Z,45.53
2019-01-31T05:11:54.884Z,52.10
2019-01-31T05:14:25.341Z,50.20
2019-01-31T05:16:59.083Z,48.43
2019-01-31T05:19:32.645Z,51.97
2019-01-31T05:22:05.736Z,46.90
2019-01-31T05:24:36.271Z,53.70
2019-01-31T05:27:08.062Z,45.10
2019-01-31T05:29:42.485Z,50.83
2019-01-31T05:32:14.197Z,46.73
2019-01-31T05:34:45.113Z,52.87
2019-01-31T05:37:16.155Z,52.80
2019-01-31T05:39:52.954Z,55.47
2019-01-31T05:42:23.816Z,47.43
2019-01-31T05:44:54.759Z,51.40
2019-01-31T05:47:45.718Z,50.90
2019-01-31T05:50:22.632Z,51.57
2019-01-31T05:52:54.837Z,58.10
2019-01-31T05:55:30.131Z,50.10
2019-01-31T05:58:14.831Z,51.63
2019-01-31T06:00:45.891Z,50.13
2019-01-31T06:03:16.997Z,51.93
2019-01-31T06:05:47.924Z,53.37
2019-01-31T06:08:19.400Z,49.87
2019-01-31T06:10:51.531Z,47.83
2019-01-31T06:13:23.892Z,54.07
2019-01-31T06:15:58.805Z,56.40
2019-01-31T06:18:43.080Z,53.53
2019-01-31T06:21:23.290Z,52.77
2019-01-31T06:23:56.198Z,54.07
2019-01-31T06:26:28.671Z,49.90
2019-01-31T06:29:01.844Z,54.60
2019-01-31T06:31:33.440Z,55.87
2019-01-31T06:34:07.527Z,56.73
2019-01-31T06:36:42.394Z,52.53
2019-01-31T06:39:14.798Z,56.40
2019-01-31T06:41:45.861Z,54.13
2019-01-31T06:44:18.807Z,57.97
2019-01-31T06:46:52.282Z,54.63
2019-01-31T06:49:25.279Z,76.27
2019-01-31T06:51:59.278Z,54.60
2019-01-31T06:54:31.252Z,54.50
2019-01-31T06:57:05.080Z,57.43
2019-01-31T06:59:38.734Z,55.70
2019-01-31T07:02:13.492Z,57.20
2019-01-31T07:04:47.253Z,55.63
2019-01-31T07:07:20.640Z,56.80
2019-01-31T07:09:53.512Z,51.43
2019-01-31T07:12:24.748Z,65.53
2019-01-31T07:14:59.622Z,62.40
2019-01-31T07:17:39.914Z,56.80
2019-01-31T07:20:13.441Z,63.53
2019-01-31T07:22:46.225Z,61.83
2019-01-31T07:25:24.666Z,62.63
2019-01-31T07:28:03.578Z,65.90
2019-01-31T07:30:34.434Z,60.03
2019-01-31T07:33:05.072Z,63.10
2019-01-31T07:35:36.107Z,63.80
2019-01-31T07:38:06.806Z,68.70
2019-01-31T07:40:38.663Z,65.40
2019-01-31T07:43:12.958Z,64.03
2019-01-31T07:45:47.565Z,67.70
2019-01-31T07:48:20.563Z,69.90
2019-01-31T07:50:55.260Z,72.63
2019-01-31T07:53:30.119Z,63.53
2019-01-31T07:56:01.123Z,68.90
2019-01-31T07:58:33.414Z,71.43
2019-01-31T08:01:07.815Z,68.67
2019-01-31T08:03:40.967Z,68.60
2019-01-31T08:06:16.452Z,63.40
2019-01-31T08:08:47.567Z,61.77
2019-01-31T08:11:19.010Z,55.67
2019-01-31T08:13:50.010Z,66.40
2019-01-31T08:16:28.555Z,59.73
2019-01-31T08:18:55.031Z,63.73
2019-01-31T08:21:27.899Z,66.90
2019-01-31T08:24:01.468Z,60.77
2019-01-31T08:26:37.884Z,136.47
2019-01-31T08:29:10.021Z,175.53
2019-01-31T08:31:40.910Z,102.67
2019-01-31T08:34:20.808Z,63.13
2019-01-31T08:36:51.855Z,58.63
2019-01-31T08:39:25.818Z,59.43
2019-01-31T08:42:05.781Z,60.70
2019-01-31T08:44:40.843Z,58.30
2019-01-31T08:47:30.900Z,55.63
2019-01-31T08:50:02.996Z,58.53
2019-01-31T08:52:34.161Z,92.13
2019-01-31T08:55:09.456Z,79.20
2019-01-31T08:57:42.183Z,58.77
2019-01-31T09:00:19.178Z,59.20
2019-01-31T09:02:49.830Z,59.47
2019-01-31T09:05:21.077Z,70.87
2019-01-31T09:07:54.847Z,56.90
2019-01-31T09:10:43.935Z,64.53
2019-01-31T09:13:21.682Z,59.07
2019-01-31T09:15:56.685Z,65.70
2019-01-31T09:18:28.834Z,56.57
2019-01-31T09:21:14.541Z,61.30
2019-01-31T09:24:36.407Z,63.40
2019-01-31T09:27:59.221Z,56.80
2019-01-31T09:31:00.995Z,57.80
2019-01-31T09:33:59.467Z,57.80
2019-01-31T09:37:06.614Z,53.67
2019-01-31T09:40:20.007Z,54.30
2019-01-31T09:43:43.166Z,58.53
2019-01-31T09:47:24.781Z,49.10
2019-01-31T09:50:59.932Z,53.20
2019-01-31T09:54:06.567Z,141.47
2019-01-31T09:57:15.183Z,110.60
2019-01-31T10:00:13.510Z,65.23
2019-01-31T10:03:17.960Z,63.93
2019-01-31T10:06:34.294Z,59.43
2019-01-31T10:09:59.636Z,58.60
2019-01-31T10:13:17.653Z,59.57
2019-01-31T10:16:11.541Z,59.10
2019-01-31T10:19:16.283Z,58.33
2019-01-31T10:22:25.573Z,60.03
2019-01-31T10:25:59.924Z,55.37
2019-01-31T10:28:57.528Z,52.80
2019-01-31T10:32:06.801Z,58.30
2019-01-31T10:35:03.159Z,56.50
2019-01-31T10:38:28.031Z,56.87
2019-01-31T10:41:55.217Z,50.03
2019-01-31T10:45:06.742Z,51.50
2019-01-31T10:48:38.763Z,49.30
2019-01-31T10:51:47.916Z,57.80
2019-01-31T10:54:46.383Z,56.83
2019-01-31T10:58:05.992Z,56.13
2019-01-31T11:01:18.957Z,63.03
2019-01-31T11:04:19.390Z,68.60
2019-01-31T11:07:32.191Z,70.23
2019-01-31T11:10:50.505Z,74.57
2019-01-31T11:13:44.610Z,76.17
2019-01-31T11:17:03.983Z,80.20
2019-01-31T11:20:30.656Z,78.87
2019-01-31T11:23:23.719Z,76.30
2019-01-31T11:26:39.322Z,83.13
2019-01-31T11:29:59.209Z,86.90
2019-01-31T11:33:01.025Z,81.40
2019-01-31T11:36:27.291Z,85.53
2019-01-31T11:40:00.584Z,81.40
2019-01-31T11:43:12.062Z,76.87
2019-01-31T11:46:36.968Z,74.17
2019-01-31T11:49:35.356Z,82.03
2019-01-31T11:52:50.821Z,77.57
2019-01-31T11:55:46.291Z,75.53
2019-01-31T11:58:53.682Z,67.53
2019-01-31T12:01:26.005Z,72.70
2019-01-31T12:04:17.404Z,69.80
2019-01-31T12:06:48.071Z,73.53
2019-01-31T12:09:21.643Z,70.73
2019-01-31T12:11:53.340Z,66.87
2019-01-31T12:14:24.764Z,70.70
2019-01-31T12:17:01.743Z,68.50
2019-01-31T12:19:33.831Z,69.13
2019-01-31T12:22:06.108Z,70.23
2019-01-31T12:24:37.021Z,73.30
2019-01-31T12:27:08.580Z,69.80
2019-01-31T12:29:43.816Z,67.00
2019-01-31T12:32:15.886Z,72.10
2019-01-31T12:35:01.797Z,69.57
2019-01-31T12:37:33.640Z,66.90
2019-01-31T12:40:13.561Z,73.67
2019-01-31T12:43:03.229Z,64.20
2019-01-31T12:45:54.340Z,64.03
2019-01-31T12:48:25.285Z,70.07
2019-01-31T12:50:56.177Z,68.70
2019-01-31T12:53:28.792Z,92.63
2019-01-31T12:56:17.488Z,69.00
2019-01-31T12:58:50.497Z,65.30
2019-01-31T13:01:21.617Z,61.87
2019-01-31T13:04:10.990Z,57.80
2019-01-31T13:06:44.217Z,61.70
2019-01-31T13:09:16.611Z,62.17
2019-01-31T13:11:49.650Z,55.57
2019-01-31T13:14:21.814Z,61.30
2019-01-31T13:17:07.717Z,63.93
2019-01-31T13:19:39.974Z,56.03
2019-01-31T13:22:12.602Z,60.30
2019-01-31T13:24:48.591Z,54.70
2019-01-31T13:27:19.217Z,52.70
2019-01-31T13:29:50.323Z,56.43
2019-01-31T13:32:21.129Z,58.63
2019-01-31T13:35:10.756Z,59.30
2019-01-31T13:37:44.108Z,59.00
2019-01-31T13:40:23.374Z,59.07
2019-01-31T13:42:58.026Z,61.17
2019-01-31T13:45:47.122Z,63.17
2019-01-31T13:48:19.395Z,53.50
2019-01-31T13:50:52.228Z,52.73
2019-01-31T13:53:26.144Z,53.93
2019-01-31T13:56:03.095Z,59.97
2019-01-31T13:58:34.200Z,56.23
2019-01-31T14:01:07.285Z,66.77
2019-01-31T14:03:44.437Z,67.03
2019-01-31T14:06:16.837Z,55.87
2019-01-31T14:09:04.207Z,60.03
2019-01-31T14:11:39.239Z,56.33
2019-01-31T14:14:16.727Z,57.23
2019-01-31T14:16:48.129Z,62.00
2019-01-31T14:19:21.743Z,57.20
2019-01-31T14:21:52.215Z,61.13
2019-01-31T14:24:22.790Z,58.57
2019-01-31T14:26:54.301Z,65.67
2019-01-31T14:29:27.225Z,62.47
2019-01-31T14:32:01.461Z,55.73
2019-01-31T14:34:40.577Z,57.27
2019-01-31T14:37:12.907Z,59.50
2019-01-31T14:39:43.347Z,63.10
2019-01-31T14:42:16.097Z,62.83
2019-01-31T14:44:50.118Z,63.07
2019-01-31T14:47:23.303Z,64.47
2019-01-31T14:50:00.219Z,64.50
2019-01-31T14:52:33.899Z,70.67
2019-01-31T14:55:07.331Z,59.47
2019-01-31T14:57:41.052Z,66.83
2019-01-31T15:00:18.195Z,70.17
2019-01-31T15:03:06.302Z,68.50
2019-01-31T15:05:40.216Z,71.63
2019-01-31T15:08:11.122Z,67.70
2019-01-31T15:10:45.929Z,63.07
2019-01-31T15:13:20.764Z,63.60
2019-01-31T15:15:52.994Z,66.73
2019-01-31T15:18:26.067Z,78.17
2019-01-31T15:21:01.952Z,65.27
2019-01-31T15:23:32.568Z,67.53
2019-01-31T15:26:04.207Z,63.07
2019-01-31T15:28:35.688Z,62.87
2019-01-31T15:31:06.386Z,69.90
2019-01-31T15:33:37.148Z,58.80
2019-01-31T15:36:08.113Z,63.30
2019-01-31T15:38:40.312Z,59.27
2019-01-31T15:41:14.498Z,65.33
2019-01-31T15:43:48.793Z,71.17
2019-01-31T15:46:20.755Z,63.33
2019-01-31T15:48:56.622Z,71.83
2019-01-31T15:51:39.864Z,62.63
2019-01-31T15:54:12.555Z,64.90
2019-01-31T15:56:45.716Z,66.97
2019-01-31T15:59:16.467Z,65.40
2019-01-31T16:01:47.998Z,64.37
2019-01-31T16:04:18.699Z,68.80
2019-01-31T16:06:49.491Z,70.90
2019-01-31T16:09:20.432Z,62.23
2019-01-31T16:11:54.156Z,69.60
2019-01-31T16:14:27.359Z,67.23
2019-01-31T16:17:03.054Z,67.87
2019-01-31T16:19:36.187Z,68.63
2019-01-31T16:22:07.387Z,68.30
2019-01-31T16:24:41.067Z,66.63
2019-01-31T16:27:12.101Z,59.20
2019-01-31T16:29:51.740Z,59.10
2019-01-31T16:32:22.266Z,74.00
2019-01-31T16:34:57.670Z,68.47
2019-01-31T16:37:32.078Z,70.63
2019-01-31T16:40:16.825Z,66.03
2019-01-31T16:42:47.576Z,68.10
2019-01-31T16:45:18.623Z,61.37
2019-01-31T16:47:55.734Z,75.23
2019-01-31T16:50:28.140Z,69.80
2019-01-31T16:53:00.987Z,69.67
2019-01-31T16:55:34.963Z,77.20
2019-01-31T16:58:08.801Z,105.50
2019-01-31T17:00:41.064Z,83.53
2019-01-31T17:03:14.770Z,73.20
2019-01-31T17:05:47.909Z,64.73
2019-01-31T17:08:21.856Z,68.10
2019-01-31T17:11:02.612Z,63.77
2019-01-31T17:13:51.584Z,64.73
2019-01-31T17:16:24.662Z,62.87
2019-01-31T17:19:00.705Z,66.30
2019-01-31T17:21:49.826Z,61.53
2019-01-31T17:24:40.162Z,66.37
2019-01-31T17:27:28.938Z,64.93
2019-01-31T17:30:08.145Z,62.97
2019-01-31T17:32:41.992Z,66.13
2019-01-31T17:35:26.787Z,56.30
2019-01-31T17:38:02.911Z,62.67
2019-01-31T17:40:38.939Z,65.17
2019-01-31T17:43:10.626Z,58.50
2019-01-31T17:45:45.106Z,67.97
2019-01-31T17:48:18.442Z,61.10
2019-01-31T17:50:53.306Z,55.27
2019-01-31T17:53:37.292Z,60.83
2019-01-31T17:56:09.110Z,58.37
2019-01-31T17:58:41.514Z,61.00
2019-01-31T18:01:15.944Z,61.97
2019-01-31T18:04:05.282Z,91.63
2019-01-31T18:06:37.779Z,73.60
2019-01-31T18:09:21.973Z,63.33
2019-01-31T18:12:00.978Z,63.73
2019-01-31T18:14:34.286Z,64.83
2019-01-31T18:17:07.170Z,60.50
2019-01-31T18:19:41.346Z,58.27
2019-01-31T18:22:14.057Z,61.70
2019-01-31T18:24:47.076Z,64.10
2019-01-31T18:27:20.464Z,59.40
2019-01-31T18:29:51.303Z,61.10
2019-01-31T18:32:21.930Z,66.37
2019-01-31T18:34:53.617Z,62.33
2019-01-31T18:37:27.296Z,63.00
2019-01-31T18:40:02.037Z,56.30
2019-01-31T18:42:37.512Z,62.90
2019-01-31T18:45:13.499Z,60.47
2019-01-31T18:47:48.099Z,57.97
2019-01-31T18:50:28.389Z,59.23
2019-01-31T18:53:17.397Z,60.27
2019-01-31T18:55:51.282Z,53.80
2019-01-31T18:58:22.166Z,60.60
2019-01-31T19:01:11.022Z,63.03
2019-01-31T19:04:00.061Z,54.67
2019-01-31T19:06:33.444Z,56.30
2019-01-31T19:09:13.203Z,57.83
2019-01-31T19:11:43.777Z,59.93
2019-01-31T19:14:14.621Z,55.77
2019-01-31T19:16:45.508Z,57.20
2019-01-31T19:19:22.052Z,63.03
2019-01-31T19:21:54.465Z,56.00
2019-01-31T19:24:27.471Z,53.50
2019-01-31T19:27:04.503Z,53.33
2019-01-31T19:29:38.535Z,49.93
2019-01-31T19:32:13.960Z,56.10
2019-01-31T19:35:06.304Z,50.80
2019-01-31T19:37:40.268Z,46.63
2019-01-31T19:40:18.594Z,51.40
2019-01-31T19:43:07.546Z,53.53
2019-01-31T19:45:44.677Z,47.50
2019-01-31T19:48:15.598Z,53.97
2019-01-31T19:50:48.241Z,51.10
2019-01-31T19:53:21.679Z,56.20
2019-01-31T19:55:54.700Z,51.57
2019-01-31T19:58:28.944Z,55.27
2019-01-31T20:01:02.343Z,49.70
2019-01-31T20:03:51.460Z,51.30
2019-01-31T20:06:27.413Z,52.33
2019-01-31T20:09:04.062Z,52.47
2019-01-31T20:11:37.163Z,55.53
2019-01-31T20:14:10.594Z,55.43
2019-01-31T20:16:44.977Z,54.33
2019-01-31T20:19:33.474Z,51.83
2019-01-31T20:22:08.194Z,52.50
2019-01-31T20:24:41.807Z,48.33
2019-01-31T20:27:12.843Z,51.07
2019-01-31T20:29:43.980Z,47.50
2019-01-31T20:32:14.768Z,49.30
2019-01-31T20:34:45.708Z,54.90
2019-01-31T20:37:16.617Z,52.43
2019-01-31T20:39:47.550Z,48.67
2019-01-31T20:42:18.239Z,47.83
2019-01-31T20:44:49.467Z,49.73
2019-01-31T20:47:22.778Z,46.47
2019-01-31T20:49:55.491Z,47.07
2019-01-31T20:52:33.523Z,47.83
2019-01-31T20:55:06.235Z,48.40
2019-01-31T20:58:09.385Z,45.53
2019-01-31T21:00:45.276Z,45.53
2019-01-31T21:03:18.205Z,47.67
2019-01-31T21:05:51.162Z,44.30
2019-01-31T21:08:22.666Z,44.60
2019-01-31T21:10:53.257Z,43.13
2019-01-31T21:13:23.650Z,42.77
2019-01-31T21:15:59.499Z,50.47
2019-01-31T21:18:30.912Z,48.00
2019-01-31T21:21:05.300Z,45.27
2019-01-31T21:23:40.614Z,48.93
2019-01-31T21:26:14.104Z,45.50
2019-01-31T21:28:46.297Z,46.30
2019-01-31T21:31:19.414Z,46.70
2019-01-31T21:33:50.400Z,45.23
2019-01-31T21:36:21.992Z,43.27
2019-01-31T21:39:10.875Z,50.63
2019-01-31T21:41:41.383Z,50.07
2019-01-31T21:44:15.770Z,51.53
2019-01-31T21:47:05.138Z,50.60
2019-01-31T21:49:39.660Z,53.80
2019-01-31T21:52:14.433Z,48.63
2019-01-31T21:54:46.328Z,48.33
2019-01-31T21:57:20.012Z,49.80
2019-01-31T21:59:53.402Z,51.90
2019-01-31T22:02:26.175Z,47.20
2019-01-31T22:05:03.014Z,46.53
2019-01-31T22:07:36.567Z,48.87
2019-01-31T22:10:08.452Z,44.53
2019-01-31T22:13:02.749Z,47.20
2019-01-31T22:15:41.347Z,47.60
2019-01-31T22:18:17.961Z,44.37
2019-01-31T22:20:50.328Z,45.67
2019-01-31T22:23:22.371Z,45.03
2019-01-31T22:25:57.024Z,47.30
2019-01-31T22:28:46.571Z,49.87
2019-01-31T22:31:37.913Z,42.63
2019-01-31T22:34:10.525Z,47.57
2019-01-31T22:36:41.589Z,44.00
2019-01-31T22:39:12.620Z,47.43
2019-01-31T22:42:03.584Z,50.30
2019-01-31T22:44:35.633Z,45.93
2019-01-31T22:47:06.931Z,41.30
2019-01-31T22:49:38.429Z,52.10
2019-01-31T22:52:09.064Z,46.53
2019-01-31T22:54:39.591Z,50.53
2019-01-31T22:57:10.378Z,51.30
2019-01-31T23:03:03.544Z,52.33
2019-01-31T23:05:52.389Z,49.80
2019-01-31T23:08:23.012Z,49.13
2019-01-31T23:10:54.573Z,54.57
2019-01-31T23:13:27.455Z,45.67
2019-01-31T23:16:07.976Z,49.97
2019-01-31T23:19:00.733Z,49.30
2019-01-31T23:21:31.626Z,51.87
2019-01-31T23:24:03.006Z,50.83
2019-01-31T23:26:36.342Z,52.73
2019-01-31T23:29:08.496Z,57.67
2019-01-31T23:31:40.132Z,52.10
2019-01-31T23:34:13.982Z,51.10
2019-01-31T23:36:44.647Z,53.10
2019-01-31T23:39:16.461Z,56.93
2019-01-31T23:41:49.691Z,56.93
2019-01-31T23:44:38.781Z,54.20
2019-01-31T23:47:10.437Z,58.60
2019-01-31T23:49:43.058Z,59.07
2019-01-31T23:52:14.898Z,57.10
2019-01-31T23:54:47.788Z,54.73
2019-01-31T23:57:20.252Z,62.13
2019-01-31T23:59:53.454Z,53.67
